createdAt,value
2023-02-02T00:00:11.954Z,3.93
2023-02-02T00:02:38.822Z,3.82
2023-02-02T00:05:05.438Z,4.08
2023-02-02T00:07:31.846Z,3.93
2023-02-02T00:09:58.292Z,4.13
2023-02-02T00:12:24.716Z,3.90
2023-02-02T00:14:51.157Z,4.15
2023-02-02T00:17:17.724Z,4.01
2023-02-02T00:19:46.670Z,4.12
2023-02-02T00:22:13.207Z,3.75
2023-02-02T00:24:39.740Z,3.95
2023-02-02T00:27:06.135Z,3.98
2023-02-02T00:29:32.716Z,4.24
2023-02-02T00:31:59.403Z,4.62
2023-02-02T00:34:26.100Z,4.54
2023-02-02T00:36:52.833Z,4.17
2023-02-02T00:39:20.748Z,3.83
2023-02-02T00:41:47.570Z,3.97
2023-02-02T00:44:33.566Z,3.96
2023-02-02T00:46:59.985Z,3.86
2023-02-02T00:49:26.447Z,3.96
2023-02-02T00:51:55.445Z,3.98
2023-02-02T00:54:21.888Z,3.93
2023-02-02T00:56:48.525Z,3.76
2023-02-02T00:59:14.976Z,4.01
2023-02-02T01:01:41.443Z,3.83
2023-02-02T01:04:08.149Z,4.17
2023-02-02T01:06:34.978Z,4.07
2023-02-02T01:09:01.454Z,4.08
2023-02-02T01:11:27.877Z,4.15
2023-02-02T01:13:54.316Z,3.96
2023-02-02T01:16:22.481Z,4.11
2023-02-02T01:18:49.406Z,4.03
2023-02-02T01:21:15.874Z,4.12
2023-02-02T01:23:42.370Z,3.95
2023-02-02T01:26:10.215Z,3.87
2023-02-02T01:28:36.762Z,4.04
2023-02-02T01:31:10.846Z,3.92
2023-02-02T01:33:37.428Z,3.95
2023-02-02T01:36:04.889Z,4.16
2023-02-02T01:38:31.785Z,3.97
2023-02-02T01:41:00.798Z,3.91
2023-02-02T01:43:45.671Z,4.01
2023-02-02T01:46:19.475Z,4.25
2023-02-02T01:48:56.743Z,3.93
2023-02-02T01:51:26.540Z,3.81
2023-02-02T01:53:56.107Z,4.06
2023-02-02T01:56:26.249Z,4.04
2023-02-02T01:58:52.964Z,4.17
2023-02-02T02:01:19.355Z,4.05
2023-02-02T02:03:45.841Z,4.03
2023-02-02T02:06:15.123Z,3.87
2023-02-02T02:08:41.523Z,4.16
2023-02-02T02:11:08.148Z,4.00
2023-02-02T02:13:56.587Z,3.98
2023-02-02T02:16:35.507Z,4.11
2023-02-02T02:19:11.590Z,4.04
2023-02-02T02:22:09.106Z,4.10
2023-02-02T02:25:03.536Z,4.08
2023-02-02T02:27:51.045Z,4.08
2023-02-02T02:30:41.178Z,4.03
2023-02-02T02:33:16.462Z,4.01
2023-02-02T02:36:02.622Z,3.97
2023-02-02T02:38:38.025Z,4.19
2023-02-02T02:41:09.658Z,4.29
2023-02-02T02:43:40.474Z,4.27
2023-02-02T02:46:09.235Z,4.29
2023-02-02T02:48:36.361Z,4.23
2023-02-02T02:51:06.659Z,3.98
2023-02-02T02:53:34.762Z,4.20
2023-02-02T02:56:27.631Z,4.20
2023-02-02T02:59:17.372Z,4.15
2023-02-02T03:02:04.086Z,4.32
2023-02-02T03:04:48.864Z,4.10
2023-02-02T03:07:23.790Z,4.13
2023-02-02T03:09:51.730Z,4.14
2023-02-02T03:12:18.141Z,4.10
2023-02-02T03:14:44.594Z,4.22
2023-02-02T03:17:11.075Z,4.33
2023-02-02T03:19:37.492Z,4.34
2023-02-02T03:22:03.870Z,4.20
2023-02-02T03:24:30.704Z,4.15
2023-02-02T03:26:57.285Z,4.14
2023-02-02T03:29:23.724Z,4.24
2023-02-02T03:31:50.349Z,4.12
2023-02-02T03:34:16.778Z,4.13
2023-02-02T03:36:43.187Z,4.20
2023-02-02T03:39:09.575Z,4.10
2023-02-02T03:41:35.968Z,4.29
2023-02-02T03:44:02.457Z,4.18
2023-02-02T03:46:28.920Z,4.28
2023-02-02T03:48:55.445Z,4.30
2023-02-02T03:51:21.837Z,4.13
2023-02-02T03:53:48.452Z,4.20
2023-02-02T03:56:15.452Z,4.17
2023-02-02T03:58:42.185Z,4.09
2023-02-02T04:01:11.188Z,4.16
2023-02-02T04:03:37.794Z,4.24
2023-02-02T04:06:04.237Z,4.24
2023-02-02T04:08:31.527Z,4.08
2023-02-02T04:10:57.969Z,4.29
2023-02-02T04:13:24.498Z,4.13
2023-02-02T04:15:58.554Z,4.25
2023-02-02T04:18:25.037Z,4.41
2023-02-02T04:20:55.950Z,4.29
2023-02-02T04:23:22.483Z,4.38
2023-02-02T04:25:49.937Z,4.23
2023-02-02T04:28:16.371Z,4.01
2023-02-02T04:30:42.953Z,4.27
2023-02-02T04:33:09.397Z,4.27
2023-02-02T04:35:35.815Z,4.17
2023-02-02T04:38:02.241Z,4.30
2023-02-02T04:40:28.742Z,4.29
2023-02-02T04:42:56.949Z,4.34
2023-02-02T04:45:23.722Z,4.20
2023-02-02T04:47:50.637Z,4.25
2023-02-02T04:50:17.432Z,4.18
2023-02-02T04:52:43.810Z,4.19
2023-02-02T04:55:10.312Z,4.27
2023-02-02T04:57:36.697Z,4.26
2023-02-02T05:00:03.540Z,4.28
2023-02-02T05:02:29.962Z,4.16
2023-02-02T05:04:56.352Z,4.21
2023-02-02T05:07:22.776Z,4.28
2023-02-02T05:09:49.160Z,3.96
2023-02-02T05:12:15.579Z,4.17
2023-02-02T05:14:42.241Z,4.30
2023-02-02T05:17:08.673Z,4.20
2023-02-02T05:19:35.121Z,4.22
2023-02-02T05:22:01.572Z,4.22
2023-02-02T05:24:28.081Z,4.15
2023-02-02T05:26:58.504Z,4.27
2023-02-02T05:29:25.577Z,4.23
2023-02-02T05:31:52.611Z,4.29
2023-02-02T05:34:19.107Z,4.33
2023-02-02T05:36:45.496Z,4.16
2023-02-02T05:39:12.087Z,4.19
2023-02-02T05:41:38.697Z,4.39
2023-02-02T05:44:05.105Z,4.25
2023-02-02T05:46:31.694Z,4.35
2023-02-02T05:48:59.301Z,4.29
2023-02-02T05:51:27.686Z,4.29
2023-02-02T05:53:54.153Z,4.45
2023-02-02T05:56:20.567Z,4.45
2023-02-02T05:58:49.886Z,4.29
2023-02-02T06:01:17.256Z,4.38
2023-02-02T06:03:43.772Z,4.37
2023-02-02T06:06:10.468Z,4.23
2023-02-02T06:08:36.878Z,4.35
2023-02-02T06:11:10.262Z,4.31
2023-02-02T06:13:36.635Z,4.31
2023-02-02T06:16:03.532Z,4.33
2023-02-02T06:18:30.088Z,4.30
2023-02-02T06:20:57.527Z,4.33
2023-02-02T06:23:23.952Z,4.31
2023-02-02T06:25:50.551Z,4.32
2023-02-02T06:28:16.940Z,4.28
2023-02-02T06:30:44.287Z,4.25
2023-02-02T06:33:10.960Z,4.22
2023-02-02T06:35:37.363Z,4.20
2023-02-02T06:38:03.784Z,4.36
2023-02-02T06:40:30.380Z,4.32
2023-02-02T06:43:00.830Z,4.39
2023-02-02T06:45:27.567Z,4.33
2023-02-02T06:47:54.345Z,4.40
2023-02-02T06:50:20.788Z,4.30
2023-02-02T06:52:51.115Z,4.51
2023-02-02T06:55:18.082Z,4.32
2023-02-02T06:57:45.039Z,4.42
2023-02-02T07:00:12.410Z,4.50
2023-02-02T07:02:39.360Z,4.42
2023-02-02T07:05:06.077Z,4.40
2023-02-02T07:07:33.305Z,4.35
2023-02-02T07:09:59.692Z,4.48
2023-02-02T07:12:27.032Z,4.49
2023-02-02T07:14:54.214Z,4.49
2023-02-02T07:17:20.754Z,4.55
2023-02-02T07:19:47.191Z,4.60
2023-02-02T07:22:14.403Z,4.38
2023-02-02T07:24:40.842Z,4.47
2023-02-02T07:27:07.257Z,4.43
2023-02-02T07:29:33.630Z,4.35
2023-02-02T07:32:00.130Z,4.30
2023-02-02T07:34:26.669Z,4.34
2023-02-02T07:36:53.103Z,4.17
2023-02-02T07:39:19.504Z,4.22
2023-02-02T07:41:46.013Z,4.24
2023-02-02T07:44:28.195Z,4.18
2023-02-02T07:46:54.702Z,4.11
2023-02-02T07:49:21.251Z,4.02
2023-02-02T07:51:49.125Z,4.15
2023-02-02T07:54:15.726Z,4.15
2023-02-02T07:56:42.159Z,4.26
2023-02-02T07:59:10.197Z,4.28
2023-02-02T08:01:36.775Z,4.37
2023-02-02T08:04:03.559Z,4.34
2023-02-02T08:06:32.181Z,4.35
2023-02-02T08:08:59.088Z,4.41
2023-02-02T08:11:26.109Z,4.36
2023-02-02T08:13:54.159Z,4.36
2023-02-02T08:16:21.185Z,4.39
2023-02-02T08:18:47.759Z,4.41
2023-02-02T08:21:14.252Z,4.20
2023-02-02T08:23:41.463Z,4.23
2023-02-02T08:26:09.457Z,4.41
2023-02-02T08:28:36.523Z,4.10
2023-02-02T08:31:07.246Z,4.49
2023-02-02T08:33:33.840Z,4.62
2023-02-02T08:36:00.337Z,4.40
2023-02-02T08:38:26.796Z,4.36
2023-02-02T08:40:53.219Z,4.31
2023-02-02T08:43:19.624Z,4.27
2023-02-02T08:46:03.983Z,4.49
2023-02-02T08:48:33.383Z,4.35
2023-02-02T08:51:00.086Z,4.40
2023-02-02T08:53:28.799Z,4.67
2023-02-02T08:56:02.533Z,4.64
2023-02-02T08:58:28.969Z,4.55
2023-02-02T09:00:55.519Z,4.54
2023-02-02T09:03:22.174Z,4.62
2023-02-02T09:05:48.658Z,4.51
2023-02-02T09:08:15.082Z,4.73
2023-02-02T09:10:41.532Z,4.71
2023-02-02T09:13:07.936Z,4.63
2023-02-02T09:15:34.362Z,4.48
2023-02-02T09:18:00.728Z,4.76
2023-02-02T09:20:27.177Z,4.65
2023-02-02T09:22:55.210Z,4.49
2023-02-02T09:25:21.722Z,4.58
2023-02-02T09:27:48.506Z,4.59
2023-02-02T09:30:14.970Z,4.79
2023-02-02T09:32:41.562Z,4.73
2023-02-02T09:35:08.144Z,4.74
2023-02-02T09:37:35.061Z,4.66
2023-02-02T09:40:02.991Z,4.59
2023-02-02T09:42:32.504Z,4.51
2023-02-02T09:45:06.121Z,4.55
2023-02-02T09:47:51.304Z,4.72
2023-02-02T09:50:17.731Z,4.40
2023-02-02T09:52:46.253Z,4.57
2023-02-02T09:55:25.085Z,4.73
2023-02-02T09:57:54.000Z,4.39
2023-02-02T10:00:23.786Z,4.35
2023-02-02T10:02:53.036Z,4.69
2023-02-02T10:05:23.752Z,4.62
2023-02-02T10:07:53.595Z,4.58
2023-02-02T10:10:20.144Z,4.73
2023-02-02T10:12:47.627Z,4.83
2023-02-02T10:15:30.552Z,4.78
2023-02-02T10:18:09.780Z,4.72
2023-02-02T10:20:45.638Z,4.81
2023-02-02T10:23:18.133Z,4.79
2023-02-02T10:25:51.378Z,4.86
2023-02-02T10:28:19.464Z,4.77
2023-02-02T10:30:47.391Z,4.84
2023-02-02T10:33:20.342Z,4.76
2023-02-02T10:35:54.176Z,4.91
2023-02-02T10:38:47.336Z,5.07
2023-02-02T10:41:13.719Z,4.93
2023-02-02T10:43:48.702Z,4.81
2023-02-02T10:46:34.287Z,4.93
2023-02-02T10:49:07.175Z,4.68
2023-02-02T10:51:34.009Z,4.90
2023-02-02T10:54:05.188Z,4.85
2023-02-02T10:56:37.766Z,4.92
2023-02-02T10:59:11.715Z,4.93
2023-02-02T11:01:38.403Z,4.91
2023-02-02T11:04:23.301Z,5.01
2023-02-02T11:06:49.752Z,5.00
2023-02-02T11:09:21.378Z,4.94
2023-02-02T11:11:51.376Z,4.92
2023-02-02T11:14:20.802Z,4.89
2023-02-02T11:16:59.368Z,4.90
2023-02-02T11:19:29.590Z,5.11
2023-02-02T11:21:57.291Z,4.98
2023-02-02T11:24:23.786Z,5.03
2023-02-02T11:26:51.692Z,5.13
2023-02-02T11:29:21.562Z,5.13
2023-02-02T11:31:47.993Z,5.10
2023-02-02T11:34:20.663Z,5.10
2023-02-02T11:37:00.888Z,5.04
2023-02-02T11:39:27.829Z,5.08
2023-02-02T11:42:20.473Z,5.00
2023-02-02T11:44:51.387Z,4.93
2023-02-02T11:47:24.568Z,5.19
2023-02-02T11:49:52.312Z,5.10
2023-02-02T11:52:21.957Z,5.04
2023-02-02T11:54:50.527Z,5.26
2023-02-02T11:57:18.514Z,5.13
2023-02-02T11:59:45.592Z,5.10
2023-02-02T12:02:24.464Z,5.23
2023-02-02T12:04:52.378Z,5.25
2023-02-02T12:07:29.643Z,5.13
2023-02-02T12:09:58.987Z,4.91
2023-02-02T12:12:50.354Z,5.04
2023-02-02T12:15:16.760Z,5.03
2023-02-02T12:17:47.780Z,5.19
2023-02-02T12:20:20.336Z,5.13
2023-02-02T12:23:11.675Z,5.12
2023-02-02T12:25:50.481Z,5.11
2023-02-02T12:28:24.851Z,5.23
2023-02-02T12:30:59.894Z,5.17
2023-02-02T12:33:29.751Z,5.07
2023-02-02T12:36:11.815Z,5.22
2023-02-02T12:38:54.845Z,5.29
2023-02-02T12:41:26.455Z,5.35
2023-02-02T12:44:19.286Z,5.34
2023-02-02T12:47:00.060Z,5.33
2023-02-02T12:49:32.487Z,5.25
2023-02-02T12:52:17.804Z,5.32
2023-02-02T12:54:49.075Z,5.27
2023-02-02T12:57:34.631Z,5.17
2023-02-02T13:00:10.178Z,5.25
2023-02-02T13:02:44.112Z,5.32
2023-02-02T13:05:23.438Z,5.30
2023-02-02T13:07:52.720Z,5.50
2023-02-02T13:10:27.549Z,5.44
2023-02-02T13:12:57.554Z,5.39
2023-02-02T13:15:30.028Z,5.34
2023-02-02T13:17:57.522Z,5.32
2023-02-02T13:20:28.937Z,5.27
2023-02-02T13:22:57.245Z,5.40
2023-02-02T13:25:28.948Z,5.31
2023-02-02T13:27:56.473Z,5.21
2023-02-02T13:30:27.297Z,5.37
2023-02-02T13:32:57.316Z,5.29
2023-02-02T13:35:27.289Z,5.07
2023-02-02T13:38:01.764Z,5.07
2023-02-02T13:40:31.994Z,5.14
2023-02-02T13:43:06.724Z,5.27
2023-02-02T13:45:33.113Z,5.48
2023-02-02T13:48:11.557Z,5.16
2023-02-02T13:50:44.963Z,5.39
2023-02-02T13:53:22.164Z,5.35
2023-02-02T13:56:17.877Z,5.34
2023-02-02T13:58:53.103Z,5.43
2023-02-02T14:01:20.096Z,5.32
2023-02-02T14:03:57.321Z,5.43
2023-02-02T14:06:25.396Z,5.32
2023-02-02T14:09:02.639Z,5.33
2023-02-02T14:11:31.176Z,5.35
2023-02-02T14:14:33.323Z,5.37
2023-02-02T14:17:01.793Z,5.43
2023-02-02T14:19:31.215Z,5.31
2023-02-02T14:21:59.416Z,5.37
2023-02-02T14:24:26.082Z,5.27
2023-02-02T14:26:54.062Z,5.49
2023-02-02T14:29:32.729Z,5.50
2023-02-02T14:32:04.504Z,5.47
2023-02-02T14:34:30.944Z,5.44
2023-02-02T14:37:16.346Z,5.24
2023-02-02T14:40:01.802Z,5.26
2023-02-02T14:42:59.219Z,5.38
2023-02-02T14:45:28.001Z,5.41
2023-02-02T14:47:55.927Z,5.32
2023-02-02T14:50:22.366Z,5.22
2023-02-02T14:53:21.205Z,5.21
2023-02-02T14:55:50.898Z,5.25
2023-02-02T14:58:26.377Z,5.37
2023-02-02T15:01:05.046Z,5.40
2023-02-02T15:03:46.832Z,5.28
2023-02-02T15:06:24.098Z,5.26
2023-02-02T15:09:09.364Z,5.35
2023-02-02T15:11:54.790Z,5.32
2023-02-02T15:14:23.370Z,5.25
2023-02-02T15:16:49.952Z,5.39
2023-02-02T15:19:27.495Z,5.16
2023-02-02T15:21:57.265Z,5.29
2023-02-02T15:24:26.507Z,5.02
2023-02-02T15:26:54.617Z,5.13
2023-02-02T15:29:37.609Z,5.12
2023-02-02T15:32:05.805Z,5.19
2023-02-02T15:34:58.601Z,5.17
2023-02-02T15:37:27.797Z,5.32
2023-02-02T15:40:00.703Z,5.12
2023-02-02T15:42:53.147Z,5.03
2023-02-02T15:45:29.396Z,5.23
2023-02-02T15:47:57.416Z,5.29
2023-02-02T15:50:23.957Z,5.33
2023-02-02T15:52:51.755Z,5.31
2023-02-02T15:55:23.228Z,5.19
2023-02-02T15:57:54.237Z,5.20
2023-02-02T16:00:30.259Z,5.21
2023-02-02T16:03:14.241Z,5.04
2023-02-02T16:05:43.580Z,5.27
2023-02-02T16:08:18.541Z,5.27
2023-02-02T16:10:46.743Z,5.13
2023-02-02T16:13:27.448Z,5.04
2023-02-02T16:15:54.808Z,5.07
2023-02-02T16:18:21.217Z,5.10
2023-02-02T16:20:49.215Z,5.21
2023-02-02T16:23:16.788Z,5.31
2023-02-02T16:25:48.338Z,5.37
2023-02-02T16:28:16.928Z,5.34
2023-02-02T16:30:44.364Z,5.23
2023-02-02T16:33:46.560Z,5.27
2023-02-02T16:36:25.239Z,5.16
2023-02-02T16:38:53.039Z,5.39
2023-02-02T16:41:26.499Z,5.31
2023-02-02T16:43:53.212Z,5.25
2023-02-02T16:46:40.925Z,5.24
2023-02-02T16:49:14.008Z,5.29
2023-02-02T16:51:40.454Z,5.25
2023-02-02T16:54:06.911Z,5.25
2023-02-02T16:56:38.348Z,5.10
2023-02-02T16:59:16.863Z,5.23
2023-02-02T17:01:45.785Z,5.40
2023-02-02T17:04:21.675Z,5.24
2023-02-02T17:06:52.804Z,5.27
2023-02-02T17:09:46.302Z,5.18
2023-02-02T17:12:30.476Z,5.16
2023-02-02T17:15:01.582Z,5.13
2023-02-02T17:17:28.031Z,5.39
2023-02-02T17:19:54.474Z,5.51
2023-02-02T17:22:22.578Z,5.25
2023-02-02T17:24:50.837Z,5.36
2023-02-02T17:27:23.336Z,5.38
2023-02-02T17:29:49.840Z,5.29
2023-02-02T17:32:16.257Z,5.28
2023-02-02T17:34:42.738Z,5.44
2023-02-02T17:37:09.305Z,5.34
2023-02-02T17:39:35.743Z,5.47
2023-02-02T17:42:02.250Z,5.50
2023-02-02T17:44:28.741Z,5.46
2023-02-02T17:46:55.213Z,5.57
2023-02-02T17:49:21.687Z,5.45
2023-02-02T17:51:48.270Z,5.43
2023-02-02T17:54:15.497Z,5.46
2023-02-02T17:56:42.470Z,5.47
2023-02-02T17:59:09.417Z,5.48
2023-02-02T18:01:39.304Z,5.51
2023-02-02T18:04:06.263Z,5.38
2023-02-02T18:06:32.811Z,5.52
2023-02-02T18:08:59.256Z,5.33
2023-02-02T18:11:25.758Z,5.50
2023-02-02T18:13:52.457Z,5.51
2023-02-02T18:16:19.891Z,5.46
2023-02-02T18:18:46.344Z,5.44
2023-02-02T18:21:14.160Z,5.37
2023-02-02T18:23:40.972Z,5.41
2023-02-02T18:26:11.970Z,5.44
2023-02-02T18:28:39.208Z,5.47
2023-02-02T18:31:12.830Z,5.49
2023-02-02T18:33:41.463Z,5.31
2023-02-02T18:36:10.566Z,5.38
2023-02-02T18:38:37.259Z,5.34
2023-02-02T18:41:04.069Z,5.39
2023-02-02T18:43:30.503Z,5.60
2023-02-02T18:46:01.412Z,5.54
2023-02-02T18:48:28.217Z,5.45
2023-02-02T18:50:54.791Z,5.43
2023-02-02T18:53:21.409Z,5.49
2023-02-02T18:55:47.933Z,5.25
2023-02-02T18:58:14.726Z,5.22
2023-02-02T19:00:41.366Z,5.28
2023-02-02T19:03:08.183Z,5.34
2023-02-02T19:05:53.351Z,5.20
2023-02-02T19:08:19.935Z,5.03
2023-02-02T19:10:46.475Z,5.09
2023-02-02T19:13:19.149Z,5.13
2023-02-02T19:15:47.142Z,5.23
2023-02-02T19:18:15.670Z,5.09
2023-02-02T19:20:42.687Z,5.02
2023-02-02T19:23:12.129Z,4.92
2023-02-02T19:25:45.659Z,5.20
2023-02-02T19:28:18.804Z,5.16
2023-02-02T19:30:45.578Z,5.01
2023-02-02T19:33:12.621Z,4.97
2023-02-02T19:35:39.336Z,5.00
2023-02-02T19:38:10.407Z,5.03
2023-02-02T19:40:38.809Z,5.04
2023-02-02T19:43:14.445Z,5.05
2023-02-02T19:45:40.940Z,5.10
2023-02-02T19:48:18.457Z,5.05
2023-02-02T19:50:44.988Z,5.02
2023-02-02T19:53:18.487Z,5.07
2023-02-02T19:55:44.966Z,4.98
2023-02-02T19:58:13.851Z,4.86
2023-02-02T20:00:40.940Z,5.06
2023-02-02T20:03:11.116Z,4.98
2023-02-02T20:05:38.949Z,5.12
2023-02-02T20:08:13.540Z,5.06
2023-02-02T20:10:43.766Z,4.93
2023-02-02T20:13:13.534Z,5.00
2023-02-02T20:15:40.070Z,4.85
2023-02-02T20:18:19.373Z,5.14
2023-02-02T20:20:48.609Z,5.08
2023-02-02T20:23:22.523Z,5.02
2023-02-02T20:25:49.055Z,4.89
2023-02-02T20:28:29.601Z,4.94
2023-02-02T20:30:56.453Z,5.17
2023-02-02T20:33:23.945Z,5.00
2023-02-02T20:35:50.428Z,4.86
2023-02-02T20:38:28.482Z,5.13
2023-02-02T20:40:55.128Z,4.98
2023-02-02T20:43:21.674Z,5.07
2023-02-02T20:45:49.222Z,5.04
2023-02-02T20:48:15.691Z,4.96
2023-02-02T20:50:42.180Z,5.15
2023-02-02T20:53:08.943Z,5.13
2023-02-02T20:55:36.837Z,4.86
2023-02-02T20:58:04.090Z,5.03
2023-02-02T21:00:30.986Z,5.09
2023-02-02T21:02:57.780Z,5.07
2023-02-02T21:05:24.743Z,5.02
2023-02-02T21:07:54.654Z,4.81
2023-02-02T21:10:25.634Z,4.96
2023-02-02T21:12:52.482Z,4.93
2023-02-02T21:15:19.209Z,4.75
2023-02-02T21:17:45.742Z,4.80
2023-02-02T21:20:13.103Z,4.92
2023-02-02T21:22:39.565Z,4.77
2023-02-02T21:25:06.294Z,4.67
2023-02-02T21:27:32.772Z,4.78
2023-02-02T21:29:59.322Z,4.83
2023-02-02T21:32:25.775Z,4.96
2023-02-02T21:34:52.238Z,4.84
2023-02-02T21:37:18.707Z,4.79
2023-02-02T21:39:49.592Z,4.80
2023-02-02T21:42:20.601Z,4.89
2023-02-02T21:44:57.346Z,4.89
2023-02-02T21:47:37.191Z,4.79
2023-02-02T21:50:17.720Z,4.86
2023-02-02T21:52:44.207Z,4.59
2023-02-02T21:55:29.548Z,4.92
2023-02-02T21:57:57.222Z,4.62
2023-02-02T22:00:26.628Z,4.72
2023-02-02T22:02:54.104Z,4.82
2023-02-02T22:05:26.370Z,4.93
2023-02-02T22:07:56.231Z,5.06
2023-02-02T22:10:22.652Z,4.88
2023-02-02T22:12:49.084Z,5.01
2023-02-02T22:15:18.302Z,4.79
2023-02-02T22:17:46.708Z,4.92
2023-02-02T22:20:17.359Z,4.97
2023-02-02T22:22:48.096Z,4.87
2023-02-02T22:25:17.558Z,4.86
2023-02-02T22:27:48.688Z,5.07
2023-02-02T22:30:36.403Z,4.84
2023-02-02T22:33:03.480Z,4.79
2023-02-02T22:35:29.960Z,4.80
2023-02-02T22:37:56.426Z,4.93
2023-02-02T22:40:23.419Z,4.86
2023-02-02T22:42:50.736Z,4.95
2023-02-02T22:45:17.238Z,4.78
2023-02-02T22:47:47.248Z,4.92
2023-02-02T22:50:14.955Z,5.08
2023-02-02T22:52:42.047Z,4.83
2023-02-02T22:55:08.988Z,4.76
2023-02-02T22:57:35.512Z,4.86
2023-02-02T23:00:03.455Z,5.07
2023-02-02T23:02:29.966Z,4.93
2023-02-02T23:04:56.438Z,4.96
2023-02-02T23:07:23.038Z,4.88
2023-02-02T23:09:49.524Z,4.96
2023-02-02T23:12:15.969Z,4.80
2023-02-02T23:14:42.435Z,5.02
2023-02-02T23:17:08.888Z,4.74
2023-02-02T23:19:35.398Z,4.92
2023-02-02T23:22:01.853Z,4.86
2023-02-02T23:24:28.291Z,4.84
2023-02-02T23:26:54.735Z,4.85
2023-02-02T23:29:21.179Z,4.92
2023-02-02T23:31:47.699Z,4.83
2023-02-02T23:34:14.161Z,4.74
2023-02-02T23:36:40.728Z,4.88
2023-02-02T23:39:07.177Z,4.69
2023-02-02T23:41:33.636Z,4.53
2023-02-02T23:44:00.145Z,4.83
2023-02-02T23:46:26.892Z,4.84
2023-02-02T23:48:53.990Z,4.78
2023-02-02T23:51:20.711Z,4.73
2023-02-02T23:53:47.387Z,4.74
2023-02-02T23:56:13.879Z,4.93
2023-02-02T23:58:40.348Z,4.90
